Tyronza, Arkansas
Current Conditions -  °F | °C
As of 4:53 PM on Thursday 18 Dec 2014 (Local Time) from KAWM Reporting Station
Overcast Overcast  
Wind Chill: 44°   Ceiling: 1600
Heat Index: 44°   Visibility: 10mi
Dew Point: 39°   Wind: 3mph
Humidity: 82%   Direction: 360°N
Pressure: 30.19"   Gusts: NA
Location:  35.49°N, 90.36°W
Report Text: KAWM 182253Z AUTO 36003KT 10SM OVC016 07/04 A3019 RMK AO2 SLP223 T00670039
Loading
Personal Weather Stations






























Interactive Weather Map New forecast layout! Learn more

10-Day Weather Forecast

Advertisements
Track Severe Weather on mobile